Home > Products > Valid Products > TAF

000
FTUS44 KEWX 230400 AAC
TAFAUS
TAF AMD
KAUS 230420Z 2304/2406 23005KT P6SM FEW035 BKN045
      TEMPO 2304/2305 22015G25KT 5SM -TSRA BKN035CB
     FM230600 24005KT P6SM FEW040 BKN150
     FM231600 24015KT P6SM SCT250=



000
FTUS44 KEWX 230300 AAB
TAFSAT
TAF AMD
KSAT 230313Z 2303/2406 25005KT P6SM BKN060
      TEMPO 2303/2305 27015G25KT -RA
     FM230500 24005KT P6SM FEW040 BKN150=



000
FTUS44 KEWX 230200 AAB
TAFAUS
TAF AMD
KAUS 230255Z 2303/2406 06005KT P6SM OVC006
      TEMPO 2303/2304 VRB15G25KT 1/2SM +TSRA FG BKN015CB
     FM230600 24005KT P6SM FEW040 BKN150
     FM231600 24015KT P6SM SCT250=



000
FTUS44 KEWX 230100 AAA
TAFDRT
TAF AMD
KDRT 230135Z 2302/2324 25005KT P6SM FEW050 SCT250
     FM231000 32007KT P6SM FEW250=



000
FTUS44 KEWX 230100 AAA
TAFSAT
TAF AMD
KSAT 230133Z 2302/2406 15005KT P6SM BKN025 BKN040
      TEMPO 2302/2305 VRB15G25KT 3SM TSRA BKN008CB
     FM230500 24005KT P6SM FEW040 BKN150=



000
FTUS44 KEWX 230100 AAA
TAFAUS
TAF AMD
KAUS 230132Z 2302/2406 06005KT P6SM OVC006
      TEMPO 2302/2304 VRB15G25KT 3SM TSRA BKN006CB
     FM230600 24005KT P6SM FEW040 BKN150
     FM231600 24015KT P6SM SCT250=



000
FTUS44 KEWX 222300 RRA
TAFAUS
TAF
KAUS 222342Z 2300/2406 15010KT P6SM BKN006 OVC015
      TEMPO 2300/2302 VRB20G30KT 2SM +TSRA BKN008CB
     FM230200 16010KT P6SM VCTS SCT020CB OVC030
      TEMPO 2302/2306 VRB15G25KT 3SM TSRA BKN008CB
     FM230600 24005KT P6SM FEW040 BKN150
     FM231600 24015KT P6SM SCT250=



000
FTUS44 KEWX 222300 RRA
TAFSAT
TAF
KSAT 222342Z 2300/2406 16010KT P6SM SCT025 BKN050
     FM230200 18011KT P6SM SCT025 BKN040
      TEMPO 2302/2305 VRB15G25KT 3SM TSRA BKN008CB
     FM230500 24005KT P6SM FEW040 BKN150=



000
FTUS44 KEWX 222300 RRA
TAFDRT
TAF
KDRT 222342Z 2300/2324 15012KT P6SM SCT025 BKN040
      TEMPO 2300/2302 VRB20G30KT 2SM +TSRA BKN025CB
     FM230400 23006KT P6SM FEW050 SCT250
     FM231000 32007KT P6SM FEW250=



000
FTUS44 KEWX 222200 AAA
TAFSAT
TAF AMD
KSAT 222202Z 2222/2324 16010KT P6SM VCSH SCT025 BKN050
     FM230200 18011KT P6SM VCTS SCT025CB BKN040
      TEMPO 2302/2305 VRB15G25KT 3SM TSRA BKN008CB
     FM230500 24005KT P6SM FEW040 BKN150=



000
FTUS44 KEWX 222100 AAA
TAFDRT
TAF AMD
KDRT 222155Z 2222/2318 15008KT P6SM VCTS SCT025CB BKN040
      TEMPO 2222/2302 VRB20G30KT 2SM +TSRA BKN025CB
     FM230400 23006KT P6SM FEW050 SCT250
     FM231000 32007KT P6SM FEW250=



000
FTUS44 KEWX 222100 AAA
TAFDRT
TAF AMD
KDRT 222155Z 2222/2318 15008KT P6SM VCTS SCT025CB BKN040
      TEMPO 2222/2302 VRB20G30KT 2SM +TSRA BKN025CB
     FM230400 23006KT P6SM FEW050 SCT250
     FM231000 32007KT P6SM FEW250=



000
FTUS44 KEWX 221800 RRA
TAFSAT
TAF
KSAT 221804Z 2218/2324 14013KT P6SM VCSH BKN007 BKN025
      TEMPO 2218/2222 VRB15G25KT 3SM TSRA BKN015CB
     FM222200 15011KT P6SM VCTS SCT025CB BKN030
      TEMPO 2222/2302 VRB20G30KT 2SM +TSRA BKN008CB
     FM230200 17011KT P6SM VCTS SCT025CB BKN040
      TEMPO 2302/2305 VRB15G25KT 3SM TSRA BKN008CB
     FM230500 24005KT P6SM FEW040 BKN150=



000
FTUS44 KEWX 221800 RRA
TAFAUS
TAF
KAUS 221804Z 2218/2324 13013KT P6SM VCTS SCT010 OVC025CB
      TEMPO 2218/2222 VRB15G25KT 2SM +TSRA BKN012CB
     FM222200 15012KT P6SM VCTS SCT025CB OVC030
      TEMPO 2222/2302 VRB20G30KT 2SM +TSRA BKN008CB
     FM230200 16010KT P6SM VCTS SCT020CB OVC030
      TEMPO 2302/2306 VRB15G25KT 3SM TSRA BKN008CB
     FM230600 24005KT P6SM FEW040 BKN150=



000
FTUS44 KEWX 221800 RRA
TAFDRT
TAF
KDRT 221804Z 2218/2318 14008KT P6SM VCSH SCT020
      TEMPO 2218/2220 BKN020
     FM222000 15012KT P6SM VCTS SCT025CB BKN040
     FM230000 23004KT P6SM VCTS BKN050CB
      TEMPO 2300/2303 3SM TS BKN030CB=



000
FTUS44 KEWX 221300 AAA
TAFAUS
TAF AMD
KAUS 221336Z 2214/2318 14012KT P6SM VCTS BKN015CB
      TEMPO 2214/2218 3SM TSRA BR OVC009CB
     FM221800 15013KT P6SM VCTS BKN025CB
      TEMPO 2218/2222 VRB15G25KT 2SM +TSRA BKN012CB
     FM222200 15012KT P6SM VCTS SCT025CB BKN040
      TEMPO 2222/2302 VRB20G30KT 2SM +TSRA BKN008CB
     FM230600 24005KT P6SM FEW040 BKN150=



000
FTUS44 KEWX 221100
TAFSAT
TAF
KSAT 221120Z 2212/2318 14012KT P6SM VCSH BKN008
      TEMPO 2214/2218 4SM TSRA BKN007CB
     FM221800 15013KT P6SM VCTS BKN025CB
      TEMPO 2218/2222 VRB15G25KT 2SM +TSRA BKN015CB
     FM222200 16011KT P6SM VCTS SCT025CB BKN040
      TEMPO 2222/2302 VRB20G30KT 2SM +TSRA BKN008CB
     FM230400 24005KT P6SM FEW040 BKN150=



000
FTUS44 KEWX 221100
TAFDRT
TAF
KDRT 221120Z 2212/2312 11008KT P6SM VCSH BKN010
      TEMPO 2214/2218 6SM TSRA BR BKN007CB
     FM221800 15012KT P6SM VCTS SCT025CB BKN040
     FM230000 23004KT P6SM VCTS BKN050CB PROB30 2300/2302 3SM TS
      BKN030CB=



000
FTUS44 KEWX 221100
TAFAUS
TAF
KAUS 221120Z 2212/2318 14012KT P6SM VCSH BKN015
      TEMPO 2214/2218 4SM TSRA OVC015CB
     FM221800 15013KT P6SM VCTS BKN025CB
      TEMPO 2218/2222 VRB15G25KT 2SM +TSRA BKN012CB
     FM222200 15012KT P6SM VCTS SCT025CB BKN040
      TEMPO 2222/2302 VRB20G30KT 2SM +TSRA BKN008CB
     FM230600 24005KT P6SM FEW040 BKN150=



000
FTUS44 KEWX 221000 AAC
TAFSAT
TAF AMD
KSAT 221043Z 2211/2312 14012KT P6SM SHRA BKN006
      TEMPO 2211/2213 6SM -RA BR
     FM221800 15013KT P6SM VCTS BKN025CB
      TEMPO 2218/2222 VRB15G25KT 2SM +TSRA BKN012CB
     FM222200 16011KT P6SM VCTS SCT025CB BKN040
      TEMPO 2222/2302 VRB20G30KT 2SM +TSRA BKN008CB
     FM230400 24005KT P6SM FEW040 BKN150=



000
FTUS44 KEWX 220800 AAB
TAFSAT
TAF AMD
KSAT 220827Z 2208/2312 14014KT P6SM VCSH BKN010 OVC017
     FM221000 14012KT 3SM SHRA BR BKN006
     FM221800 15013KT P6SM VCTS BKN025CB
      TEMPO 2218/2222 VRB15G25KT 2SM +TSRA BKN012CB
     FM222200 16011KT P6SM VCTS SCT025CB BKN040
      TEMPO 2222/2302 VRB20G30KT 2SM +TSRA BKN008CB
     FM230400 24005KT P6SM FEW040 BKN150=



000
FTUS44 KEWX 220700 AAB
TAFAUS
TAF AMD
KAUS 220759Z 2208/2312 15012KT P6SM VCSH OVC010
     FM221200 14012KT 5SM SHRA BR BKN007
     FM221800 15013KT P6SM VCTS BKN030CB
      TEMPO 2218/2222 VRB15G25KT 2SM +TSRA BKN012CB
     FM222200 15012KT P6SM VCTS SCT025CB BKN040
      TEMPO 2222/2302 VRB20G30KT 2SM +TSRA BKN008CB
     FM230600 24005KT P6SM FEW040 BKN150=



000
FTUS44 KEWX 220700 AAA
TAFSAT
TAF AMD
KSAT 220726Z 2207/2312 14014KT P6SM VCSH BKN012 OVC025
      TEMPO 2207/2210 BKN009
     FM221000 14012KT 3SM SHRA BR BKN006
     FM221800 15013KT P6SM VCTS BKN025CB
      TEMPO 2218/2222 VRB15G25KT 2SM +TSRA BKN012CB
     FM222200 16011KT P6SM VCTS SCT025CB BKN040
      TEMPO 2222/2302 VRB20G30KT 2SM +TSRA BKN008CB
     FM230400 24005KT P6SM FEW040 BKN150=



000
FTUS44 KEWX 220700 AAA
TAFAUS
TAF AMD
KAUS 220724Z 2207/2312 15012KT P6SM VCSH OVC007
     FM221200 14012KT 5SM SHRA BR BKN007
     FM221800 15013KT P6SM VCTS BKN030CB
      TEMPO 2218/2222 VRB15G25KT 2SM +TSRA BKN012CB
     FM222200 15012KT P6SM VCTS SCT025CB BKN040
      TEMPO 2222/2302 VRB20G30KT 2SM +TSRA BKN008CB
     FM230600 24005KT P6SM FEW040 BKN150=



000
FTUS44 KEWX 220500
TAFSAT
TAF
KSAT 220532Z 2206/2312 14014KT 6SM BR OVC008
     FM221000 14012KT 3SM SHRA BR BKN006
     FM221800 15013KT P6SM VCTS BKN025CB
      TEMPO 2218/2222 VRB15G25KT 2SM +TSRA BKN012CB
     FM222200 16011KT P6SM VCTS SCT025CB BKN040
      TEMPO 2222/2302 VRB20G30KT 2SM +TSRA BKN008CB
     FM230400 24005KT P6SM FEW040 BKN150=



000
FTUS44 KEWX 220500
TAFAUS
TAF
KAUS 220532Z 2206/2312 15012KT P6SM BKN011
     FM221200 14012KT 5SM SHRA BR BKN007
     FM221800 15013KT P6SM VCTS BKN030CB
      TEMPO 2218/2222 VRB15G25KT 2SM +TSRA BKN012CB
     FM222200 15012KT P6SM VCTS SCT025CB BKN040
      TEMPO 2222/2302 VRB20G30KT 2SM +TSRA BKN008CB
     FM230600 24005KT P6SM FEW040 BKN150=



000
FTUS44 KEWX 220500
TAFDRT
TAF
KDRT 220532Z 2206/2306 12008KT 6SM -SHRA OVC015
     FM221200 11008KT 3SM -SHRA BR BKN008
     FM221600 14011KT P6SM VCSH BKN015
     FM221900 15012KT P6SM VCTS SCT025CB BKN040 PROB30 2219/2224
      VRB15G25KT 3SM TSRA BKN025CB
     FM230000 23004KT P6SM FEW040 BKN150=



000
FTUS44 KEWX 220000 CCA
TAFDRT
TAF COR
KDRT 220002Z 2200/2224 14008KT P6SM SCT025 OVC040
      TEMPO 2202/2206 SHRA BKN025
     FM220600 13009KT P6SM VCSH BKN015
     FM221200 12008KT 3SM BR VCSH BKN015 PROB30 2212/2218 2SM SHRA
      BR BKN006
     FM221800 15007KT P6SM SCT025 BKN040 PROB30 2218/2224 3SM TSRA
      BKN025CB=



000
FTUS44 KEWX 212300 RRA
TAFAUS
TAF
KAUS 212341Z 2200/2306 14008KT P6SM VCSH SCT025 OVC040
      TEMPO 2200/2203 3SM SHRA OVC018
     FM220300 14011KT P6SM OVC009
      TEMPO 2214/2218 3SM SHRA BR BKN006
     FM221800 15013KT P6SM VCTS BKN030CB
      TEMPO 2218/2222 VRB15G30KT 2SM +TSRA BKN012CB
     FM222200 15012KT P6SM VCTS SCT025CB BKN040
      TEMPO 2222/2302 VRB15G30KT 2SM +TSRA BKN008CB
     FM230300 15006KT P6SM BKN025=



000
FTUS44 KEWX 212300 RRA
TAFSAT
TAF
KSAT 212341Z 2200/2306 15008KT P6SM VCSH SCT015 OVC025
      TEMPO 2200/2203 5SM -SHRA BR BKN015
     FM220300 14012KT 6SM BR OVC007
      TEMPO 2212/2216 3SM SHRA BR BKN004
     FM221600 15013KT P6SM VCTS BKN025CB
      TEMPO 2218/2222 VRB15G30KT 2SM +TSRA BKN012CB
     FM222200 16011KT P6SM VCTS SCT025CB BKN040
      TEMPO 2222/2302 VRB15G30KT 2SM +TSRA BKN008CB
     FM230300 18005KT P6SM BKN025=



000
FTUS44 KEWX 212300 RRA
TAFDRT
TAF
KDRT 212341Z 2200/2224 14008KT P6SM SCT025 OVC040
      TEMPO 2202/2206 SHRA BKN025
     FM220600 13009KT P6SM BKN015
     FM221200 12008KT 3SM BR VCSH BKN015 PROB30 2212/2218 2SM SHRA
      BR BKN006
     FM221800 15007KT P6SM SCT025 BKN040 PROB30 2218/2224 3SM TSRA
      BKN025CB=



000
FTUS44 KEWX 212200 AAA
TAFSAT
TAF AMD
KSAT 212206Z 2122/2224 20003KT P6SM BKN023 BKN060 BKN250
      TEMPO 2122/2201 2SM +TSRA OVC012CB
     FM220100 14014KT 4SM -SHRA BR OVC008
     FM221500 15011KT 5SM -TSRA BR OVC011CB=



000
FTUS44 KEWX 212100 AAC
TAFAUS
TAF AMD
KAUS 212139Z 2122/2224 17008KT P6SM FEW018 OVC022
      TEMPO 2122/2124 3SM SHRA OVC018
     FM220000 15013KT 6SM -SHRA BR OVC007
     FM221200 11011KT 4SM BR BKN007 PROB30 2214/2220 TS BKN007CB
     FM222000 13005KT 3SM TSRA BR OVC008CB=



000
FTUS44 KEWX 212100 AAC
TAFAUS
TAF AMD
KAUS 212139Z 2122/2224 17008KT P6SM FEW018 OVC022
      TEMPO 2122/2124 3SM SHRA OVC018
     FM220000 15013KT 6SM -SHRA BR OVC007
     FM221200 11011KT 4SM BR BKN007 PROB30 2214/2220 TS BKN007CB
     FM222000 13005KT 3SM TSRA BR OVC008CB=



000
FTUS44 KEWX 212000 AAB
TAFAUS
TAF AMD
KAUS 212039Z 2121/2224 17008KT P6SM BKN018 OVC022
      TEMPO 2121/2124 3SM SHRA OVC008
     FM220000 15013KT 6SM -SHRA BR OVC007
     FM221200 11011KT 4SM BR BKN007 PROB30 2214/2220 TS BKN007CB
     FM222000 13005KT 3SM TSRA BR OVC008CB=



000
FTUS44 KEWX 211700 CCA
TAFDRT
TAF COR
KDRT 211753Z 2118/2218 17004KT 2SM BR OVC002
     FM211900 14011KT P6SM SCT015 BKN040
     FM220900 12006KT 1SM BR OVC002=



000
FTUS44 KEWX 211700 CCA
TAFSAT
TAF COR
KSAT 211745Z 2118/2224 15006KT P6SM -SHRA BKN011
     FM212100 16011KT P6SM BKN025
     FM220000 14014KT 4SM -SHRA BR OVC008 PROB30 2212/2218 TS
      BKN007CB
     FM221800 15011KT 5SM -TSRA BR OVC011CB=



000
FTUS44 KEWX 211700 AAA
TAFAUS
TAF AMD
KAUS 211744Z 2118/2224 17008KT P6SM VCSH BKN008 OVC012
     FM212100 17011KT P6SM BKN025
     FM220000 15013KT 6SM -SHRA BR OVC007
     FM221200 11011KT 4SM BR BKN007 PROB30 2214/2220 TS BKN007CB
     FM222000 13005KT 3SM TSRA BR OVC008CB=



000
FTUS44 KEWX 211700
TAFDRT
TAF
KDRT 211740Z 2118/2218 17004KT 2SM BR OVC002
     FM211900 14011KT P6SM SCT015 BKN040
     FM220000 12006KT 1SM BR OVC002=



000
FTUS44 KEWX 211700
TAFAUS
TAF
KAUS 211740Z 2118/2224 17008KT P6SM VCSH BKN008 OVC012
     FM212100 17011KT P6SM BKN025
     FM220000 15013KT 6SM -SHRA BR OVC007
     FM221200 11011KT 4SM BR BKN007 PROB30 2214/2220 TS BKN007CB=



000
FTUS44 KEWX 211700
TAFSAT
TAF
KSAT 211740Z 2118/2224 15006KT P6SM -SHRA BKN011
     FM212100 16011KT P6SM BKN025
     FM220000 14014KT 4SM -SHRA BR OVC008 PROB30 2212/2218 TS
      BKN007CB=



000
FTUS44 KEWX 211500 AAB
TAFDRT
TAF AMD
KDRT 211508Z 2115/2212 10004KT 1/4SM FG OVC002
     FM211630 10005KT 1SM BR OVC007
     FM211800 14006KT 4SM BR BKN012
     FM211900 14011KT P6SM SCT025 BKN040=



000
FTUS44 KEWX 211400 AAA
TAFDRT
TAF AMD
KDRT 211403Z 2114/2212 10004KT 1/4SM FG OVC002
     FM211500 10005KT 1SM BR OVC007
     FM211600 14006KT 4SM BR BKN012
     FM211800 14011KT P6SM SCT025 BKN040=



000
FTUS44 KEWX 211100 RRA
TAFSAT
TAF
KSAT 211141Z 2112/2218 17004KT 3SM -DZ BR OVC003
      TEMPO 2112/2116 1SM BR OVC002
     FM211700 16008KT P6SM VCSH OVC012
     FM212100 16011KT P6SM VCTS BKN025CB
     FM220000 14014KT 4SM BR VCSH OVC008=



000
FTUS44 KEWX 211100 RRA
TAFDRT
TAF
KDRT 211141Z 2112/2212 11005KT 1/2SM FG VV002
      TEMPO 2112/2114 1/4SM FG
     FM211400 10004KT 1 1/2SM BR OVC004
     FM211500 10005KT 4SM BR OVC007
     FM211600 14006KT P6SM BKN012
     FM211800 14011KT P6SM SCT025 BKN040=



000
FTUS44 KEWX 211100 RRA
TAFAUS
TAF
KAUS 211141Z 2112/2218 15006KT 6SM BR VCSH BKN007 BKN018
      TEMPO 2112/2116 4SM BR BKN005
     FM211800 17008KT P6SM VCSH OVC012
     FM212100 17011KT P6SM VCTS BKN025CB
     FM220000 15013KT 4SM BR VCSH OVC007
     FM221200 11011KT 4SM BR BKN007 PROB30 2212/2216 TS BKN007CB=



000
FTUS44 KEWX 210900 AAD
TAFAUS
TAF AMD
KAUS 210906Z 2109/2212 15006KT 3SM BR VCSH BKN007 BKN012
     FM211700 17008KT P6SM VCSH OVC012
     FM211900 17011KT P6SM VCSH BKN025 OVC040 PROB30 2120/2202 5SM
      -TSRA OVC015CB
     FM220200 15013KT P6SM OVC009=



000
FTUS44 KEWX 210800 AAA
TAFSAT
TAF AMD
KSAT 210839Z 2109/2212 17004KT 5SM BR OVC005
     FM211700 16008KT 6SM BR OVC012
     FM211900 16011KT P6SM VCSH BKN025 OVC040 PROB30 2120/2202 5SM
      -TSRA OVC015CB
     FM220200 14014KT P6SM OVC008=



000
FTUS44 KEWX 210800 AAC
TAFAUS
TAF AMD
KAUS 210831Z 2109/2212 15006KT 1SM BR VCSH OVC005
      TEMPO 2109/2112 1/2SM FG OVC002
     FM211700 17008KT P6SM VCSH OVC012
     FM211900 17011KT P6SM VCSH BKN025 OVC040 PROB30 2120/2202 5SM
      -TSRA OVC015CB
     FM220200 15013KT P6SM OVC009=



000
FTUS44 KEWX 210800 AAC
TAFDRT
TAF AMD
KDRT 210805Z 2108/2206 11005KT 1/4SM FG VV002
     FM211300 10004KT 1 1/2SM BR OVC004
     FM211400 10005KT 4SM BR OVC007
     FM211500 14006KT P6SM BKN012
     FM211900 14011KT P6SM SCT025 BKN040=



000
FTUS44 KEWX 210700 AAB
TAFAUS
TAF AMD
KAUS 210728Z 2107/2212 15006KT 3/4SM -DZ BR OVC002
      TEMPO 2107/2111 1/2SM -DZ FG OVC001
     FM211700 17008KT P6SM VCSH OVC012
     FM211900 17011KT P6SM VCSH BKN025 OVC040 PROB30 2120/2202 5SM
      -TSRA OVC015CB
     FM220200 15013KT P6SM OVC009=



000
FTUS44 KEWX 210700 AAB
TAFDRT
TAF AMD
KDRT 210703Z 2107/2206 12006KT 3SM BR OVC002
     FM210800 11005KT 2SM BR BKN002
      TEMPO 2108/2112 3/4SM BR
     FM211700 14006KT P6SM BKN012
     FM211900 14011KT P6SM SCT025 BKN040
     FM220200 12006KT P6SM VCSH OVC009=



000
FTUS44 KEWX 210600 AAA
TAFDRT
TAF AMD
KDRT 210642Z 2107/2206 12006KT 4SM BR BKN003
     FM210800 11005KT 2SM BR BKN002
     FM211700 14006KT P6SM BKN012
     FM211900 14011KT P6SM SCT025 BKN040
     FM220200 12006KT P6SM VCSH OVC009=



000
FTUS44 KEWX 210600 AAA
TAFAUS
TAF AMD
KAUS 210625Z 2106/2212 15006KT 1SM BR OVC002
      TEMPO 2106/2110 1/2SM -DZ FG OVC001
     FM211700 17008KT P6SM VCSH OVC012
     FM211900 17011KT P6SM VCSH BKN025 OVC040 PROB30 2120/2202 5SM
      -TSRA OVC015CB
     FM220200 15013KT P6SM OVC009=



000
FTUS44 KEWX 210500 CCA
TAFAUS
TAF COR
KAUS 210527Z 2106/2212 15006KT 2SM BR OVC003
      TEMPO 2106/2110 1/2SM -DZ FG OVC002
     FM211700 17008KT P6SM VCSH OVC012
     FM211900 17011KT P6SM VCSH BKN025 OVC040 PROB30 2120/2202 5SM
      -TSRA OVC015CB
     FM220200 15013KT P6SM OVC009=



000
FTUS44 KEWX 210500
TAFDRT
TAF
KDRT 210525Z 2106/2206 12006KT P6SM SKC
     FM210800 11005KT P6SM BKN015
     FM211200 11005KT 2SM BR OVC004
     FM211700 14006KT P6SM BKN012
     FM211900 14011KT P6SM SCT025 BKN040
     FM220200 12006KT P6SM VCSH OVC009=



000
FTUS44 KEWX 210500
TAFAUS
TAF
KAUS 210525Z 2106/2212 15006KT 2SM BR OVC003
      TEMPO 2106/2110 3/4SM -DZ OVC002
     FM211700 17008KT P6SM VCSH OVC012
     FM211900 17011KT P6SM VCSH BKN025 OVC040 PROB30 2120/2202 5SM
      -TSRA OVC015CB
     FM220200 15013KT P6SM OVC009=



000
FTUS44 KEWX 210500
TAFSAT
TAF
KSAT 210525Z 2106/2212 15005KT 5SM BR OVC005
     FM210800 17004KT 2SM BR OVC003
     FM211700 16008KT 6SM BR OVC012
     FM211900 16011KT P6SM VCSH BKN025 OVC040 PROB30 2120/2202 5SM
      -TSRA OVC015CB
     FM220200 14014KT P6SM OVC008=



000
FTUS44 KEWX 210400 AAD
TAFAUS
TAF AMD
KAUS 210441Z 2105/2206 16007KT 5SM BR OVC004
      TEMPO 2105/2109 2SM -DZ OVC003
     FM210900 17004KT 2SM BR OVC003
     FM211700 18011KT P6SM VCSH BKN025 OVC040 PROB30 2118/2124 5SM
      -TSRA OVC015CB
     FM220200 15011KT P6SM OVC015=



000
FTUS44 KEWX 210300 AAA
TAFSAT
TAF AMD
KSAT 210318Z 2103/2206 14004KT 6SM BR OVC008
     FM210800 17004KT 2SM BR OVC004
     FM211700 17008KT 6SM BR OVC012
     FM211900 16011KT P6SM VCSH BKN025 OVC040 PROB30 2119/2124 5SM
      -TSRA OVC015CB
     FM220200 14012KT P6SM OVC015=



000
FTUS44 KEWX 210300 AAC
TAFAUS
TAF AMD
KAUS 210316Z 2103/2206 16007KT 5SM BR OVC004
     FM210900 17004KT 2SM BR OVC003
     FM211700 18011KT P6SM VCSH BKN025 OVC040 PROB30 2118/2124 5SM
      -TSRA OVC015CB
     FM220200 15011KT P6SM OVC015=



000
FTUS44 KEWX 210200 AAB
TAFAUS
TAF AMD
KAUS 210207Z 2102/2206 16007KT 5SM BR OVC006
     FM210900 17004KT 2SM BR OVC004
     FM211700 18011KT P6SM VCSH BKN025 OVC040 PROB30 2118/2124 5SM
      -TSRA OVC015CB
     FM220200 15011KT P6SM OVC015=



000
FTUS44 KEWX 202300 AAA
TAFAUS
TAF AMD
KAUS 202350Z 2100/2206 18007KT P6SM VCSH OVC025
      TEMPO 2100/2102 5SM -SHRA BR BKN015
     FM210200 17006KT P6SM VCSH OVC015
     FM210600 17005KT 5SM BR OVC007
     FM211200 16004KT 2SM BR OVC004
     FM211700 18011KT P6SM VCSH BKN025 OVC040 PROB30 2118/2124 5SM
      -TSRA OVC015CB
     FM220200 15011KT P6SM OVC015=



000
FTUS44 KEWX 202300
TAFAUS
TAF
KAUS 202336Z 2100/2206 18007KT P6SM VCSH OVC025
     FM210200 17006KT P6SM VCSH OVC015
     FM210600 17005KT 5SM BR OVC007
     FM211200 16004KT 2SM BR OVC004
     FM211700 18011KT P6SM VCSH BKN025 OVC040 PROB30 2118/2124 5SM
      -TSRA OVC015CB
     FM220200 15011KT P6SM OVC015=



000
FTUS44 KEWX 202300
TAFDRT
TAF
KDRT 202336Z 2100/2124 13006KT P6SM SKC
     FM210400 11006KT P6SM BKN015
     FM211100 11005KT 2SM BR OVC004
     FM211600 14006KT 6SM BR BKN012
     FM211800 14011KT P6SM SCT025 BKN040=



000
FTUS44 KEWX 202300
TAFSAT
TAF
KSAT 202336Z 2100/2206 17005KT 6SM BR VCSH BKN022 OVC040
     FM210200 17005KT 6SM BR VCSH OVC015
     FM210500 16005KT 4SM BR OVC007
     FM210800 17004KT 2SM BR OVC004
     FM211700 17008KT 6SM BR OVC012
     FM211900 16011KT P6SM VCSH BKN025 OVC040 PROB30 2119/2124 5SM
      -TSRA OVC015CB
     FM220200 14012KT P6SM OVC015=



000
FTUS44 KEWX 202000 AAB
TAFSAT
TAF AMD
KSAT 202049Z 2021/2124 15005KT 3SM -RA BR FEW007 BKN015
      TEMPO 2021/2022 2SM -RA BR
     FM202200 17005KT P6SM OVC015
     FM210200 16005KT 6SM BR OVC015
     FM210600 16005KT 4SM BR OVC007
     FM211800 17012KT P6SM OVC025=



000
FTUS44 KEWX 202000 AAB
TAFAUS
TAF AMD
KAUS 202046Z 2021/2124 18012KT P6SM SCT025 OVC045
     FM210200 17010KT 5SM BR OVC015
     FM210600 17005KT 4SM BR OVC007
     FM211600 18012KT P6SM OVC015 PROB30 2118/2124 5SM TSRA
      OVC015CB=



000
FTUS44 KEWX 201900 AAA
TAFAUS
TAF AMD
KAUS 201913Z 2019/2124 18012KT P6SM BKN025 OVC045
     FM210200 17005KT 5SM BR OVC015
     FM210600 17005KT 4SM BR OVC007
     FM211600 18012KT P6SM OVC015 PROB30 2118/2124 5SM TSRA
      OVC015CB=



000
FTUS44 KEWX 201900 AAA
TAFSAT
TAF AMD
KSAT 201911Z 2019/2124 15005KT 3SM -RA BR OVC007
     FM202100 17005KT P6SM OVC015
     FM210200 16005KT 6SM BR OVC015
     FM210600 16005KT 4SM BR OVC007
     FM211800 17012KT P6SM OVC025=



000
FTUS44 KEWX 201700
TAFAUS
TAF
KAUS 201739Z 2018/2124 18010KT P6SM SCT025 BKN035
     FM202300 18010KT P6SM OVC025
     FM210200 17005KT 5SM BR OVC015
     FM210600 17005KT 4SM BR OVC007
     FM211600 18012KT P6SM OVC015 PROB30 2118/2124 5SM TSRA
      OVC015CB=



000
FTUS44 KEWX 201700
TAFDRT
TAF
KDRT 201739Z 2018/2118 15005KT 3SM BR OVC002
     FM201900 15005KT P6SM SCT010
     FM210600 15005KT 3SM BR OVC015=



000
FTUS44 KEWX 201700
TAFSAT
TAF
KSAT 201739Z 2018/2124 15005KT P6SM OVC006
      TEMPO 2018/2019 3SM -RA BR
     FM201900 17005KT P6SM OVC025
     FM210200 16005KT 6SM BR OVC015
     FM210600 16005KT 4SM BR OVC007
     FM211800 17012KT P6SM OVC025=



000
FTUS44 KEWX 201600 AAE
TAFDRT
TAF AMD
KDRT 201617Z 2016/2112 15005KT 1/2SM FG OVC002
      TEMPO 2016/2018 1/4SM FG VV002
     FM201800 13005KT P6SM SCT010
     FM210600 10006KT P6SM OVC015=



000
FTUS44 KEWX 201600 AAB
TAFSAT
TAF AMD
KSAT 201610Z 2016/2118 15005KT P6SM OVC008
     FM201800 17007KT P6SM OVC025
     FM210200 16005KT 6SM BR OVC015
     FM210600 16005KT 4SM BR OVC007=



000
FTUS44 KEWX 201400 AAD
TAFDRT
TAF AMD
KDRT 201437Z 2015/2112 11005KT 6SM BR BKN007
      TEMPO 2015/2017 1/2SM FG OVC002
     FM201700 11006KT P6SM BKN015
     FM201800 13007KT P6SM SCT025 BKN250
     FM210600 10006KT P6SM OVC015=



000
FTUS44 KEWX 201400 AAC
TAFDRT
TAF AMD
KDRT 201400Z 2014/2112 11005KT 6SM BR BKN007
      TEMPO 2014/2016 2SM BR OVC004
     FM201600 11006KT P6SM BKN012
     FM201800 13007KT P6SM SCT025 BKN250
     FM210600 10006KT P6SM OVC015=



000
FTUS44 KEWX 201300 AAA
TAFSAT
TAF AMD
KSAT 201352Z 2014/2118 VRB03KT 6SM BR BKN015
      TEMPO 2014/2016 BKN008
     FM201800 17007KT P6SM OVC025
     FM210200 16005KT 6SM BR OVC015
     FM210600 16005KT 4SM BR OVC007=



000
FTUS44 KEWX 201200 AAB
TAFDRT
TAF AMD
KDRT 201225Z 2012/2112 11005KT 6SM BR BKN007
     FM201600 11006KT P6SM BKN012
     FM201800 13007KT P6SM SCT025 BKN250
     FM210600 10006KT P6SM OVC015=



000
FTUS44 KEWX 201200 AAA
TAFDRT
TAF AMD
KDRT 201217Z 2012/2112 11005KT P6SM FEW250
     FM201300 11004KT P6SM BKN007
     FM201600 11006KT P6SM BKN012
     FM201800 13007KT P6SM SCT025 BKN250
     FM210600 10006KT P6SM OVC015=



000
FTUS44 KEWX 201100
TAFSAT
TAF
KSAT 201120Z 2012/2118 VRB03KT 6SM BR BKN015
     FM201800 17007KT P6SM OVC025
     FM210200 16005KT 6SM BR OVC015
     FM210600 16005KT 4SM BR OVC007=



000
FTUS44 KEWX 201100
TAFDRT
TAF
KDRT 201120Z 2012/2112 11005KT P6SM FEW250
     FM201300 11004KT P6SM BKN015
     FM201800 13007KT P6SM SCT025 BKN250
     FM210600 10006KT P6SM OVC015=



000
FTUS44 KEWX 201100
TAFAUS
TAF
KAUS 201120Z 2012/2118 VRB04KT P6SM SCT040
     FM201300 21003KT 5SM BR BKN020
     FM201900 18009KT P6SM OVC025
     FM210000 17005KT 5SM BR OVC015
     FM210600 17005KT 4SM BR OVC007=



000
FTUS44 KEWX 200900 AAA
TAFSAT
TAF AMD
KSAT 200923Z 2009/2112 24003KT 6SM BR BKN025
     FM201300 25003KT 5SM BR OVC010
     FM201700 17007KT P6SM OVC015
     FM210100 14005KT 6SM BR OVC006
     FM210600 16005KT 4SM BR OVC005=



000
FTUS44 KEWX 200900 AAA
TAFAUS
TAF AMD
KAUS 200923Z 2009/2112 VRB02KT P6SM SCT250
     FM201100 21003KT 6SM BR BKN020
     FM201700 17008KT P6SM OVC015
     FM210100 17005KT 5SM BR OVC008
     FM210600 17005KT 3SM BR OVC006=



000
FTUS44 KEWX 200500
TAFDRT
TAF
KDRT 200533Z 2006/2106 11005KT P6SM FEW250
     FM201200 11004KT P6SM BKN015
     FM201800 14007KT P6SM SCT025=



000
FTUS44 KEWX 200500
TAFAUS
TAF
KAUS 200533Z 2006/2112 VRB02KT P6SM SCT250
     FM201000 21003KT 6SM BR BKN020
     FM201700 17008KT P6SM OVC015
     FM210100 17005KT 5SM BR OVC008
     FM210600 17005KT 3SM BR OVC006=



000
FTUS44 KEWX 200500
TAFSAT
TAF
KSAT 200533Z 2006/2112 VRB03KT P6SM FEW250
     FM200900 24003KT 6SM BR BKN015
     FM201300 25003KT 5SM BR OVC006
     FM201700 17007KT P6SM OVC011
     FM210100 14005KT 6SM BR OVC006
     FM210600 16005KT 4SM BR OVC005=



    US Dept of Commerce
    National Oceanic and Atmospheric Administration
    National Weather Service
    1325 East West Highway
    Silver Spring, MD 20910
    Page Author: NWS Internet Services Team
Disclaimer
Information Quality
Credits
Glossary
Privacy Policy
Freedom of Information Act (FOIA)
About Us
Career Opportunities